createdAt,value
2018-07-06T00:00:24.423Z,2.10
2018-07-06T00:02:57.433Z,2.07
2018-07-06T00:05:36.283Z,1.80
2018-07-06T00:08:09.475Z,1.70
2018-07-06T00:10:42.475Z,1.90
2018-07-06T00:13:15.628Z,1.67
2018-07-06T00:15:54.391Z,1.77
2018-07-06T00:18:27.573Z,1.87
2018-07-06T00:21:00.762Z,1.97
2018-07-06T00:23:39.684Z,1.87
2018-07-06T00:26:12.841Z,1.80
2018-07-06T00:28:45.988Z,1.87
2018-07-06T00:31:19.191Z,2.10
2018-07-06T00:33:52.432Z,1.60
2018-07-06T00:36:25.502Z,1.80
2018-07-06T00:38:58.495Z,2.00
2018-07-06T00:41:31.683Z,1.90
2018-07-06T00:44:04.763Z,1.90
2018-07-06T00:46:38.096Z,1.90
2018-07-06T00:49:11.278Z,2.30
2018-07-06T00:51:44.432Z,1.80
2018-07-06T00:54:17.507Z,2.17
2018-07-06T00:56:50.554Z,1.80
2018-07-06T00:59:23.575Z,1.90
2018-07-06T01:02:02.639Z,1.47
2018-07-06T01:04:35.621Z,1.90
2018-07-06T01:07:08.654Z,2.00
2018-07-06T01:09:42.353Z,2.03
2018-07-06T01:12:21.096Z,1.67
2018-07-06T01:14:54.219Z,2.00
2018-07-06T01:17:33.080Z,1.70
2018-07-06T01:20:06.270Z,2.10
2018-07-06T01:22:39.379Z,2.03
2018-07-06T01:25:18.312Z,1.70
2018-07-06T01:27:51.417Z,2.00
2018-07-06T01:30:24.478Z,2.33
2018-07-06T01:33:03.468Z,2.13
2018-07-06T01:35:36.706Z,2.30
2018-07-06T01:38:09.825Z,1.90
2018-07-06T01:40:48.804Z,2.07
2018-07-06T01:43:21.995Z,1.80
2018-07-06T01:46:00.849Z,1.60
2018-07-06T01:48:39.745Z,2.27
2018-07-06T01:51:12.867Z,1.90
2018-07-06T01:53:51.756Z,1.80
2018-07-06T01:56:24.901Z,1.57
2018-07-06T01:58:57.907Z,1.70
2018-07-06T02:01:36.815Z,1.70
2018-07-06T02:04:09.942Z,2.10
2018-07-06T02:06:43.053Z,1.63
2018-07-06T02:09:21.807Z,1.80
2018-07-06T02:11:54.976Z,1.60
2018-07-06T02:14:33.780Z,2.17
2018-07-06T02:17:06.934Z,1.97
2018-07-06T02:19:40.035Z,1.83
2018-07-06T02:22:13.219Z,1.70
2018-07-06T02:24:46.236Z,2.17
2018-07-06T02:27:19.330Z,1.87
2018-07-06T02:29:52.471Z,1.77
2018-07-06T02:32:25.777Z,1.93
2018-07-06T02:34:59.025Z,1.70
2018-07-06T02:37:32.067Z,1.80
2018-07-06T02:40:05.128Z,1.73
2018-07-06T02:42:44.069Z,1.77
2018-07-06T02:45:22.907Z,1.70
2018-07-06T02:47:56.042Z,1.23
2018-07-06T02:50:29.155Z,1.70
2018-07-06T02:53:08.249Z,1.67
2018-07-06T02:55:43.082Z,1.57
2018-07-06T02:58:22.721Z,2.10
2018-07-06T03:01:01.800Z,1.90
2018-07-06T03:03:34.842Z,1.70
2018-07-06T03:06:13.706Z,1.60
2018-07-06T03:08:46.911Z,1.53
2018-07-06T03:11:20.079Z,1.40
2018-07-06T03:13:53.230Z,1.70
2018-07-06T03:16:26.364Z,1.40
2018-07-06T03:18:59.517Z,1.37
2018-07-06T03:21:32.545Z,1.97
2018-07-06T03:24:11.304Z,1.77
2018-07-06T03:26:50.461Z,1.33
2018-07-06T03:29:23.611Z,2.00
2018-07-06T03:32:02.516Z,1.80
2018-07-06T03:34:41.403Z,1.47
2018-07-06T03:37:20.299Z,1.70
2018-07-06T03:39:53.440Z,1.73
2018-07-06T03:42:26.595Z,1.60
2018-07-06T03:44:59.767Z,1.60
2018-07-06T03:47:32.970Z,1.70
2018-07-06T03:50:06.014Z,1.90
2018-07-06T03:52:44.882Z,1.40
2018-07-06T03:55:23.754Z,1.63
2018-07-06T03:57:57.297Z,1.77
2018-07-06T04:00:30.423Z,1.80
2018-07-06T04:03:09.316Z,2.00
2018-07-06T04:05:42.435Z,1.87
2018-07-06T04:08:21.295Z,2.00
2018-07-06T04:10:54.499Z,1.90
2018-07-06T04:13:33.291Z,2.20
2018-07-06T04:16:06.545Z,1.50
2018-07-06T04:18:45.359Z,1.70
2018-07-06T04:21:18.482Z,1.87
2018-07-06T04:23:51.646Z,1.77
2018-07-06T04:26:24.702Z,1.97
2018-07-06T04:28:57.706Z,1.90
2018-07-06T04:31:30.891Z,1.80
2018-07-06T04:34:03.979Z,1.80
2018-07-06T04:36:37.112Z,1.77
2018-07-06T04:39:10.102Z,2.47
2018-07-06T04:41:43.246Z,1.73
2018-07-06T04:44:16.281Z,2.00
2018-07-06T04:46:49.399Z,2.40
2018-07-06T04:49:22.506Z,1.73
2018-07-06T04:51:55.693Z,1.80
2018-07-06T04:54:28.686Z,1.80
2018-07-06T04:57:01.847Z,1.97
2018-07-06T04:59:34.866Z,2.30
2018-07-06T05:02:08.010Z,2.07
2018-07-06T05:04:41.150Z,1.87
2018-07-06T05:07:14.286Z,1.80
2018-07-06T05:09:47.406Z,2.00
2018-07-06T05:12:26.286Z,2.40
2018-07-06T05:14:59.477Z,1.90
2018-07-06T05:17:38.247Z,2.20
2018-07-06T05:20:11.360Z,1.90
2018-07-06T05:22:44.539Z,1.90
2018-07-06T05:25:17.531Z,1.97
2018-07-06T05:27:56.472Z,1.87
2018-07-06T05:30:29.647Z,2.60
2018-07-06T05:33:03.906Z,2.53
2018-07-06T05:35:37.205Z,2.27
2018-07-06T05:38:10.338Z,2.33
2018-07-06T05:40:43.480Z,3.23
2018-07-06T05:43:16.651Z,3.20
2018-07-06T05:45:49.679Z,4.40
2018-07-06T05:48:22.807Z,4.37
2018-07-06T05:50:56.013Z,4.90
2018-07-06T05:53:34.927Z,4.87
2018-07-06T05:56:07.933Z,4.80
2018-07-06T05:58:41.115Z,5.40
2018-07-06T06:01:14.336Z,5.60
2018-07-06T06:03:53.159Z,5.97
2018-07-06T06:06:26.311Z,5.50
2018-07-06T06:08:53.316Z,5.93
2018-07-06T06:11:20.835Z,5.73
2018-07-06T06:13:48.353Z,6.13
2018-07-06T06:16:16.022Z,5.93
2018-07-06T06:18:43.879Z,5.93
2018-07-06T06:21:11.628Z,6.00
2018-07-06T06:23:39.239Z,5.70
2018-07-06T06:26:06.786Z,6.80
2018-07-06T06:28:34.302Z,7.57
2018-07-06T06:31:01.840Z,6.57
2018-07-06T06:33:29.414Z,7.30
2018-07-06T06:35:56.954Z,8.07
2018-07-06T06:38:24.616Z,8.43
2018-07-06T06:40:52.205Z,7.63
2018-07-06T06:43:19.764Z,7.93
2018-07-06T06:45:47.286Z,7.80
2018-07-06T06:48:14.933Z,8.07
2018-07-06T06:50:42.502Z,9.03
2018-07-06T06:53:10.080Z,8.80
2018-07-06T06:55:44.262Z,8.57
2018-07-06T06:58:11.803Z,8.43
2018-07-06T07:00:39.310Z,8.57
2018-07-06T07:03:06.855Z,8.13
2018-07-06T07:05:34.391Z,7.20
2018-07-06T07:08:01.914Z,7.73
2018-07-06T07:10:29.480Z,8.60
2018-07-06T07:12:57.001Z,7.77
2018-07-06T07:15:24.543Z,7.77
2018-07-06T07:17:52.102Z,8.97
2018-07-06T07:20:19.644Z,8.80
2018-07-06T07:22:47.227Z,9.03
2018-07-06T07:25:14.770Z,8.00
2018-07-06T07:27:42.323Z,9.30
2018-07-06T07:30:10.008Z,9.70
2018-07-06T07:32:37.622Z,9.77
2018-07-06T07:35:05.126Z,9.97
2018-07-06T07:37:32.669Z,9.80
2018-07-06T07:40:00.367Z,9.60
2018-07-06T07:42:27.937Z,11.43
2018-07-06T07:44:55.613Z,11.10
2018-07-06T07:47:23.362Z,9.70
2018-07-06T07:49:50.986Z,10.40
2018-07-06T07:52:29.863Z,10.30
2018-07-06T07:54:57.463Z,9.93
2018-07-06T07:57:25.025Z,10.50
2018-07-06T07:59:53.531Z,10.63
2018-07-06T08:02:21.058Z,11.20
2018-07-06T08:04:49.026Z,11.37
2018-07-06T08:07:16.968Z,10.50
2018-07-06T08:09:44.508Z,12.10
2018-07-06T08:12:12.043Z,11.43
2018-07-06T08:14:39.783Z,11.87
2018-07-06T08:17:07.306Z,11.83
2018-07-06T08:19:34.835Z,12.03
2018-07-06T08:22:02.377Z,12.73
2018-07-06T08:24:29.894Z,11.73
2018-07-06T08:26:57.507Z,12.40
2018-07-06T08:29:25.046Z,12.13
2018-07-06T08:31:52.607Z,12.47
2018-07-06T08:34:25.699Z,12.90
2018-07-06T08:37:30.827Z,13.27
2018-07-06T08:39:58.722Z,11.90
2018-07-06T08:42:28.332Z,11.03
2018-07-06T08:44:56.829Z,12.50
2018-07-06T08:47:24.345Z,13.13
2018-07-06T08:49:52.439Z,12.90
2018-07-06T08:52:19.967Z,12.33
2018-07-06T08:54:48.493Z,13.97
2018-07-06T08:57:16.266Z,13.77
2018-07-06T08:59:43.783Z,13.33
2018-07-06T09:02:11.456Z,13.00
2018-07-06T09:04:39.027Z,12.93
2018-07-06T09:07:06.622Z,12.97
2018-07-06T09:09:34.151Z,13.13
2018-07-06T09:12:01.781Z,14.03
2018-07-06T09:14:30.147Z,13.80
2018-07-06T09:16:57.778Z,12.63
2018-07-06T09:19:25.329Z,13.30
2018-07-06T09:21:52.820Z,12.63
2018-07-06T09:24:20.428Z,12.80
2018-07-06T09:26:47.931Z,13.93
2018-07-06T09:29:15.463Z,13.23
2018-07-06T09:31:43.103Z,14.07
2018-07-06T09:34:10.658Z,13.07
2018-07-06T09:36:39.741Z,13.90
2018-07-06T09:39:08.401Z,14.23
2018-07-06T09:41:35.926Z,13.60
2018-07-06T09:44:03.678Z,12.70
2018-07-06T09:46:31.232Z,13.73
2018-07-06T09:48:58.770Z,13.07
2018-07-06T09:51:26.422Z,12.57
2018-07-06T09:53:53.966Z,12.87
2018-07-06T09:56:21.490Z,12.63
2018-07-06T09:58:49.006Z,11.90
2018-07-06T10:01:16.522Z,11.70
2018-07-06T10:03:44.050Z,11.30
2018-07-06T10:06:11.570Z,12.27
2018-07-06T10:08:39.102Z,12.33
2018-07-06T10:11:06.672Z,11.03
2018-07-06T10:13:34.158Z,12.07
2018-07-06T10:16:01.683Z,12.05
2018-07-06T10:18:29.343Z,11.53
2018-07-06T10:20:56.887Z,12.23
2018-07-06T10:23:24.416Z,11.45
2018-07-06T10:25:52.100Z,12.00
2018-07-06T10:28:26.992Z,11.05
2018-07-06T10:33:05.798Z,9.18
2018-07-06T10:35:33.274Z,9.23
2018-07-06T10:38:00.803Z,8.35
2018-07-06T10:40:28.334Z,8.45
2018-07-06T10:42:55.859Z,8.18
2018-07-06T10:45:23.396Z,8.28
2018-07-06T10:47:50.923Z,8.58
2018-07-06T10:50:18.450Z,7.55
2018-07-06T10:52:45.976Z,7.75
2018-07-06T10:55:13.535Z,7.47
2018-07-06T10:57:41.078Z,6.92
2018-07-06T11:00:08.771Z,7.67
2018-07-06T11:02:36.341Z,6.90
2018-07-06T11:05:03.917Z,7.62
2018-07-06T11:07:31.422Z,7.53
2018-07-06T11:09:58.950Z,6.20
2018-07-06T11:12:26.484Z,7.10
2018-07-06T11:14:54.039Z,6.17
2018-07-06T11:17:21.578Z,7.50
2018-07-06T11:19:49.966Z,6.67
2018-07-06T11:22:17.478Z,5.70
2018-07-06T11:24:45.000Z,5.78
2018-07-06T11:27:12.582Z,5.65
2018-07-06T11:29:40.215Z,6.20
2018-07-06T11:32:07.784Z,6.67
2018-07-06T11:34:35.329Z,6.17
2018-07-06T11:37:02.962Z,6.78
2018-07-06T11:39:30.571Z,5.65
2018-07-06T11:41:58.074Z,5.85
2018-07-06T11:44:25.644Z,6.37
2018-07-06T11:46:53.499Z,4.97
2018-07-06T11:49:21.028Z,5.65
2018-07-06T11:51:48.607Z,5.60
2018-07-06T11:54:16.198Z,6.45
2018-07-06T11:56:43.817Z,5.67
2018-07-06T11:59:11.343Z,5.80
2018-07-06T12:01:38.936Z,5.92
2018-07-06T12:04:06.542Z,5.42
2018-07-06T12:06:34.702Z,5.40
2018-07-06T12:09:02.324Z,5.30
2018-07-06T12:11:29.864Z,5.33
2018-07-06T12:13:57.557Z,5.40
2018-07-06T12:16:25.148Z,5.80
2018-07-06T12:18:52.669Z,5.53
2018-07-06T12:21:20.330Z,5.15
2018-07-06T12:23:47.879Z,5.42
2018-07-06T12:26:15.411Z,4.60
2018-07-06T12:28:43.102Z,5.28
2018-07-06T12:31:10.691Z,4.90
2018-07-06T12:33:38.215Z,4.45
2018-07-06T12:36:05.818Z,4.20
2018-07-06T12:38:33.359Z,3.60
2018-07-06T12:41:00.905Z,3.73
2018-07-06T12:43:28.581Z,3.80
2018-07-06T12:45:56.123Z,4.13
2018-07-06T12:48:23.719Z,4.07
2018-07-06T12:50:51.261Z,3.70
2018-07-06T12:53:18.930Z,4.07
2018-07-06T12:55:46.472Z,4.10
2018-07-06T12:58:14.031Z,3.70
2018-07-06T13:00:41.527Z,3.77
2018-07-06T13:03:09.090Z,3.10
2018-07-06T13:05:36.644Z,3.17
2018-07-06T13:08:04.785Z,3.43
2018-07-06T13:10:32.944Z,3.80
2018-07-06T13:13:00.497Z,2.90
2018-07-06T13:15:28.013Z,3.10
2018-07-06T13:17:55.554Z,2.70
2018-07-06T13:20:23.107Z,2.80
2018-07-06T13:22:50.839Z,2.70
2018-07-06T13:25:18.543Z,2.20
2018-07-06T13:27:46.172Z,1.90
2018-07-06T13:30:13.681Z,1.82
2018-07-06T13:32:41.256Z,1.90
2018-07-06T13:35:08.886Z,1.62
2018-07-06T13:37:36.444Z,1.60
2018-07-06T13:40:04.912Z,1.50
2018-07-06T13:42:32.432Z,1.47
2018-07-06T13:45:00.140Z,1.70
2018-07-06T13:47:27.706Z,1.67
2018-07-06T13:49:55.266Z,1.60
2018-07-06T13:52:22.846Z,1.25
2018-07-06T13:54:50.346Z,1.40
2018-07-06T13:57:17.879Z,1.60
2018-07-06T13:59:45.981Z,1.40
2018-07-06T14:02:13.580Z,1.40
2018-07-06T14:04:41.233Z,1.50
2018-07-06T14:07:08.912Z,1.22
2018-07-06T14:09:36.991Z,1.37
2018-07-06T14:12:04.905Z,1.50
2018-07-06T14:14:32.708Z,1.15
2018-07-06T14:17:00.553Z,1.42
2018-07-06T14:19:28.142Z,1.17
2018-07-06T14:21:55.763Z,1.15
2018-07-06T14:24:23.529Z,1.45
2018-07-06T14:26:51.795Z,1.20
2018-07-06T14:29:19.434Z,1.40
2018-07-06T14:31:47.121Z,1.20
2018-07-06T14:34:14.804Z,1.32
2018-07-06T14:36:42.411Z,1.60
2018-07-06T14:39:09.945Z,1.40
2018-07-06T14:41:37.684Z,1.37
2018-07-06T14:44:05.415Z,1.42
2018-07-06T14:46:32.967Z,1.22
2018-07-06T14:49:00.528Z,1.50
2018-07-06T14:51:28.491Z,1.40
2018-07-06T14:53:56.187Z,1.60
2018-07-06T14:56:23.724Z,1.98
2018-07-06T14:58:51.543Z,1.45
2018-07-06T15:01:19.098Z,1.62
2018-07-06T15:03:46.674Z,1.55
2018-07-06T15:06:14.208Z,1.72
2018-07-06T15:08:41.708Z,1.60
2018-07-06T15:11:09.240Z,1.35
2018-07-06T15:13:36.932Z,1.72
2018-07-06T15:16:04.586Z,1.77
2018-07-06T15:18:32.140Z,1.40
2018-07-06T15:20:59.662Z,1.40
2018-07-06T15:23:27.198Z,1.47
2018-07-06T15:25:54.845Z,1.57
2018-07-06T15:28:23.837Z,2.20
2018-07-06T15:30:51.364Z,2.40
2018-07-06T15:33:18.882Z,2.02
2018-07-06T15:35:46.415Z,3.92
2018-07-06T15:38:13.926Z,2.10
2018-07-06T15:40:41.566Z,2.70
2018-07-06T15:43:09.173Z,2.20
2018-07-06T15:45:36.702Z,1.60
2018-07-06T15:48:04.214Z,1.90
2018-07-06T15:50:31.862Z,2.02
2018-07-06T15:52:59.561Z,1.62
2018-07-06T15:55:27.185Z,1.67
2018-07-06T15:57:54.728Z,1.62
2018-07-06T16:00:22.271Z,1.42
2018-07-06T16:02:49.957Z,1.37
2018-07-06T16:05:17.503Z,1.70
2018-07-06T16:07:45.085Z,1.40
2018-07-06T16:10:12.626Z,1.67
2018-07-06T16:12:40.180Z,1.30
2018-07-06T16:15:07.682Z,1.40
2018-07-06T16:17:35.306Z,1.52
2018-07-06T16:20:02.862Z,1.30
2018-07-06T16:22:30.447Z,1.42
2018-07-06T16:24:57.967Z,1.12
2018-07-06T16:27:25.647Z,1.50
2018-07-06T16:29:53.206Z,1.20
2018-07-06T16:32:20.717Z,1.02
2018-07-06T16:34:48.260Z,0.70
2018-07-06T16:37:15.897Z,1.00
2018-07-06T16:39:43.460Z,1.00
2018-07-06T16:42:11.006Z,1.00
2018-07-06T16:44:38.539Z,1.10
2018-07-06T16:47:06.145Z,1.30
2018-07-06T16:49:33.852Z,0.97
2018-07-06T16:52:01.464Z,1.03
2018-07-06T16:54:29.004Z,1.23
2018-07-06T16:56:56.683Z,1.47
2018-07-06T16:59:24.221Z,1.70
2018-07-06T17:01:51.750Z,1.60
2018-07-06T17:04:19.274Z,1.30
2018-07-06T17:06:47.097Z,1.37
2018-07-06T17:09:14.598Z,1.27
2018-07-06T17:11:42.228Z,1.27
2018-07-06T17:14:09.782Z,1.60
2018-07-06T17:16:37.317Z,1.30
2018-07-06T17:19:04.839Z,1.40
2018-07-06T17:21:32.395Z,1.30
2018-07-06T17:24:00.086Z,1.30
2018-07-06T17:26:27.700Z,1.60
2018-07-06T17:28:55.302Z,2.20
2018-07-06T17:31:22.870Z,2.53
2018-07-06T17:33:50.499Z,3.50
2018-07-06T17:36:18.022Z,3.07
2018-07-06T17:38:45.533Z,2.63
2018-07-06T17:41:13.184Z,3.03
2018-07-06T17:43:40.716Z,2.10
2018-07-06T17:46:08.412Z,2.43
2018-07-06T17:48:35.956Z,4.33
2018-07-06T17:51:03.479Z,3.30
2018-07-06T17:53:31.005Z,4.00
2018-07-06T17:55:58.842Z,3.10
2018-07-06T17:58:26.418Z,2.70
2018-07-06T18:00:53.931Z,5.67
2018-07-06T18:03:21.440Z,5.07
2018-07-06T18:05:48.969Z,6.97
2018-07-06T18:08:16.599Z,7.17
2018-07-06T18:10:44.170Z,14.37
2018-07-06T18:13:11.739Z,16.90
2018-07-06T18:15:39.412Z,15.27
2018-07-06T18:18:06.907Z,31.10
2018-07-06T18:20:34.559Z,74.53
2018-07-06T18:23:02.247Z,203.50
2018-07-06T18:25:29.691Z,170.40
2018-07-06T18:27:57.215Z,136.30
2018-07-06T18:30:24.830Z,79.90
2018-07-06T18:32:52.338Z,44.50
2018-07-06T18:35:19.975Z,26.73
2018-07-06T18:37:47.602Z,15.83
2018-07-06T18:40:15.139Z,19.73
2018-07-06T18:42:42.803Z,10.10
2018-07-06T18:45:10.311Z,6.03
2018-07-06T18:47:37.907Z,4.00
2018-07-06T18:50:05.435Z,3.67
2018-07-06T18:52:33.007Z,2.93
2018-07-06T18:55:00.549Z,3.70
2018-07-06T18:57:28.222Z,4.13
2018-07-06T18:59:55.757Z,2.97
2018-07-06T19:02:23.280Z,3.63
2018-07-06T19:04:50.812Z,3.77
2018-07-06T19:07:18.317Z,3.73
2018-07-06T19:09:45.822Z,3.77
2018-07-06T19:12:13.362Z,3.47
2018-07-06T19:14:41.015Z,3.60
2018-07-06T19:17:08.589Z,3.57
2018-07-06T19:19:36.230Z,2.97
2018-07-06T19:22:03.758Z,3.33
2018-07-06T19:24:31.295Z,3.43
2018-07-06T19:26:59.067Z,3.73
2018-07-06T19:29:26.665Z,3.63
2018-07-06T19:31:54.282Z,3.40
2018-07-06T19:34:21.999Z,3.17
2018-07-06T19:36:49.882Z,3.43
2018-07-06T19:39:17.461Z,3.30
2018-07-06T19:41:45.231Z,3.33
2018-07-06T19:44:12.758Z,3.50
2018-07-06T19:46:40.317Z,3.57
2018-07-06T19:49:07.979Z,4.00
2018-07-06T19:51:35.546Z,3.77
2018-07-06T19:54:03.121Z,3.77
2018-07-06T19:56:30.757Z,3.87
2018-07-06T19:58:58.313Z,3.93
2018-07-06T20:01:25.917Z,3.27
2018-07-06T20:03:53.480Z,4.10
2018-07-06T20:06:21.156Z,3.17
2018-07-06T20:08:48.804Z,3.20
2018-07-06T20:11:16.370Z,3.17
2018-07-06T20:13:44.008Z,3.20
2018-07-06T20:16:11.575Z,2.60
2018-07-06T20:18:39.426Z,3.10
2018-07-06T20:21:07.155Z,3.13
2018-07-06T20:23:35.031Z,3.27
2018-07-06T20:26:02.978Z,3.00
2018-07-06T20:28:30.746Z,2.70
2018-07-06T20:30:58.429Z,2.93
2018-07-06T20:33:26.488Z,3.53
2018-07-06T20:35:54.326Z,3.07
2018-07-06T20:38:22.247Z,2.73
2018-07-06T20:40:50.254Z,2.67
2018-07-06T20:43:18.510Z,2.90
2018-07-06T20:45:46.294Z,2.53
2018-07-06T20:48:14.307Z,2.60
2018-07-06T20:50:42.117Z,3.00
2018-07-06T20:53:10.037Z,3.00
2018-07-06T20:55:37.817Z,2.60
2018-07-06T20:58:05.837Z,2.87
2018-07-06T21:00:33.651Z,3.27
2018-07-06T21:03:01.404Z,3.33
2018-07-06T21:05:29.157Z,3.30
2018-07-06T21:07:56.951Z,3.53
2018-07-06T21:10:24.676Z,3.27
2018-07-06T21:12:52.366Z,3.47
2018-07-06T21:15:20.373Z,3.10
2018-07-06T21:17:48.121Z,3.07
2018-07-06T21:20:15.949Z,3.90
2018-07-06T21:22:43.822Z,3.23
2018-07-06T21:25:11.433Z,3.70
2018-07-06T21:27:39.108Z,3.40
2018-07-06T21:30:06.767Z,4.03
2018-07-06T21:32:34.393Z,3.67
2018-07-06T21:35:02.338Z,3.93
2018-07-06T21:37:30.178Z,4.10
2018-07-06T21:39:58.223Z,3.50
2018-07-06T21:42:26.029Z,3.50
2018-07-06T21:44:53.610Z,3.67
2018-07-06T21:47:21.211Z,3.43
2018-07-06T21:49:49.010Z,3.73
2018-07-06T21:52:16.720Z,3.87
2018-07-06T21:54:44.815Z,4.00
2018-07-06T21:57:12.525Z,3.70
2018-07-06T21:59:40.195Z,3.60
2018-07-06T22:02:15.821Z,3.57
2018-07-06T22:04:44.973Z,3.47
2018-07-06T22:07:13.156Z,3.43
2018-07-06T22:09:40.920Z,3.93
2018-07-06T22:12:08.531Z,4.43
2018-07-06T22:14:36.513Z,4.23
2018-07-06T22:17:04.414Z,4.17
2018-07-06T22:19:32.042Z,4.13
2018-07-06T22:21:59.799Z,3.93
2018-07-06T22:24:27.375Z,4.17
2018-07-06T22:26:55.096Z,3.67
2018-07-06T22:29:22.896Z,3.90
2018-07-06T22:31:50.543Z,4.60
2018-07-06T22:34:18.078Z,4.63
2018-07-06T22:36:45.614Z,5.33
2018-07-06T22:39:13.216Z,3.97
2018-07-06T22:41:41.298Z,5.03
2018-07-06T22:44:08.843Z,4.70
2018-07-06T22:46:36.340Z,4.33
2018-07-06T22:49:03.923Z,4.83
2018-07-06T22:51:31.535Z,5.03
2018-07-06T22:53:59.341Z,5.13
2018-07-06T22:56:26.867Z,4.83
2018-07-06T22:58:54.416Z,5.23
2018-07-06T23:01:21.936Z,4.37
2018-07-06T23:03:49.627Z,4.50
2018-07-06T23:06:17.249Z,4.67
2018-07-06T23:08:44.994Z,4.57
2018-07-06T23:11:12.694Z,4.47
2018-07-06T23:13:40.300Z,4.30
2018-07-06T23:16:07.916Z,4.40
2018-07-06T23:18:35.505Z,4.30
2018-07-06T23:21:04.755Z,5.03
2018-07-06T23:23:32.407Z,4.53
2018-07-06T23:26:00.028Z,5.00
2018-07-06T23:28:27.550Z,4.43
2018-07-06T23:30:55.140Z,4.63
2018-07-06T23:33:22.678Z,4.30
2018-07-06T23:35:50.236Z,4.40
2018-07-06T23:38:17.830Z,4.07
2018-07-06T23:40:46.128Z,4.63
2018-07-06T23:43:13.659Z,4.50
2018-07-06T23:45:41.184Z,4.47
2018-07-06T23:48:08.693Z,4.27
2018-07-06T23:50:36.362Z,4.03
2018-07-06T23:53:03.959Z,4.37
2018-07-06T23:55:31.462Z,4.37
2018-07-06T23:57:59.088Z,4.23
